Time;durP1;ratioP1;P1;durP2;ratioP2;P2;SDS_P1;SDS_P2;PMS_P1;PMS_P2;Temp;Humidity;BMP_temperature;BMP_pressure;BME280_temperature;BME280_humidity;BME280_pressure;Samples;Min_cycle;Max_cycle;Signal;HPM_P1;HPM_P2
2024/04/14 00:00:35;;;;;;;;;;;18.00;99.90;;;;;;5312904;21;19989;-81
2024/04/14 00:03:01;;;;;;;;;;;17.90;99.90;;;;;;5346588;26;19941;-81
2024/04/14 00:05:26;;;;;;;;;;;17.90;99.90;;;;;;5344684;26;19932;-81
2024/04/14 00:07:52;;;;;;;;;;;17.80;99.90;;;;;;5346234;26;19938;-81
2024/04/14 00:10:17;;;;;;;;;;;17.80;99.90;;;;;;5340686;26;19930;-80
2024/04/14 00:12:43;;;;;;;;;;;17.70;99.90;;;;;;5306835;26;20277;-81
2024/04/14 00:15:09;;;;;;;;;;;17.60;99.90;;;;;;5304998;27;19930;-81
2024/04/14 00:17:35;;;;;;;;;;;17.60;99.90;;;;;;5308081;26;20389;-81
2024/04/14 00:20:01;;;;;;;;;;;17.50;99.90;;;;;;5293922;27;19931;-80
2024/04/14 00:22:26;;;;;;;;;;;17.50;99.90;;;;;;5289078;27;19930;-82
2024/04/14 00:24:52;;;;;;;;;;;17.40;99.90;;;;;;5280169;27;19938;-81
2024/04/14 00:27:17;;;;;;;;;;;17.30;99.90;;;;;;5278739;27;19938;-80
2024/04/14 00:29:42;;;;;;;;;;;17.30;99.90;;;;;;5280547;27;19939;-82
2024/04/14 00:32:08;;;;;;;;;;;17.20;99.90;;;;;;5297296;26;19937;-82
2024/04/14 00:34:33;;;;;;;;;;;17.20;99.90;;;;;;5312324;26;19931;-81
2024/04/14 00:36:59;;;;;;;;;;;17.10;99.90;;;;;;5295662;27;19939;-81
2024/04/14 00:39:24;;;;;;;;;;;17.10;99.90;;;;;;5309155;27;20265;-83
2024/04/14 00:41:50;;;;;;;;;;;17.00;99.90;;;;;;5288275;27;19942;-81
2024/04/14 00:44:15;;;;;;;;;;;16.90;99.90;;;;;;5299748;26;19938;-81
2024/04/14 00:46:41;;;;;;;;;;;16.90;99.90;;;;;;5299945;26;19931;-81
2024/04/14 00:49:06;;;;;;;;;;;16.80;99.90;;;;;;5298941;26;20289;-80
2024/04/14 00:51:32;;;;;;;;;;;16.80;99.90;;;;;;5297144;27;19939;-80
2024/04/14 00:53:57;;;;;;;;;;;16.80;99.90;;;;;;5303678;26;19938;-81
2024/04/14 00:56:23;;;;;;;;;;;16.70;99.90;;;;;;5313038;27;19939;-82
2024/04/14 00:58:49;;;;;;;;;;;16.70;99.90;;;;;;5300331;26;19938;-82
2024/04/14 01:01:16;;;;;;;;;;;16.60;99.90;;;;;;5312674;27;19939;-82
2024/04/14 01:03:42;;;;;;;;;;;16.50;99.90;;;;;;5313042;26;19978;-82
2024/04/14 01:06:08;;;;;;;;;;;16.50;99.90;;;;;;5314442;26;20385;-81
2024/04/14 01:08:33;;;;;;;;;;;16.50;99.90;;;;;;5313129;26;20387;-81
2024/04/14 01:10:59;;;;;;;;;;;16.40;99.90;;;;;;5303339;26;19935;-82
2024/04/14 01:13:24;;;;;;;;;;;16.40;99.90;;;;;;5298011;26;20002;-81
2024/04/14 01:15:50;;;;;;;;;;;16.30;99.90;;;;;;5279834;27;19935;-81
2024/04/14 01:18:15;;;;;;;;;;;16.30;99.90;;;;;;5308626;27;19931;-82
2024/04/14 01:20:41;;;;;;;;;;;16.20;99.90;;;;;;5312886;26;19942;-81
2024/04/14 01:23:06;;;;;;;;;;;16.20;99.90;;;;;;5313666;26;19942;-81
2024/04/14 01:25:32;;;;;;;;;;;16.20;99.90;;;;;;5304364;27;19939;-81
2024/04/14 01:27:57;;;;;;;;;;;16.10;99.90;;;;;;5305432;26;19937;-81
2024/04/14 01:30:23;;;;;;;;;;;16.10;99.90;;;;;;5284772;27;19937;-81
2024/04/14 01:32:48;;;;;;;;;;;16.00;99.90;;;;;;5288763;27;19986;-81
2024/04/14 01:35:14;;;;;;;;;;;16.00;99.90;;;;;;5308438;27;19938;-82
2024/04/14 01:37:39;;;;;;;;;;;15.90;99.90;;;;;;5300461;26;19935;-81
2024/04/14 01:40:05;;;;;;;;;;;15.90;99.90;;;;;;5314451;26;19938;-81
2024/04/14 01:42:31;;;;;;;;;;;15.80;99.90;;;;;;5283092;26;20394;-82
2024/04/14 01:44:56;;;;;;;;;;;15.80;99.90;;;;;;5281691;27;19938;-82
2024/04/14 01:47:21;;;;;;;;;;;15.80;99.90;;;;;;5281219;27;19938;-82
2024/04/14 01:49:47;;;;;;;;;;;15.70;99.90;;;;;;5299064;27;19930;-82
2024/04/14 01:52:12;;;;;;;;;;;15.70;99.90;;;;;;5315111;26;19935;-82
2024/04/14 01:54:38;;;;;;;;;;;15.70;99.90;;;;;;5285621;26;19938;-82
2024/04/14 01:57:03;;;;;;;;;;;15.60;99.90;;;;;;5281294;27;20440;-81
2024/04/14 01:59:29;;;;;;;;;;;15.60;99.90;;;;;;5308419;27;19938;-81
2024/04/14 02:01:54;;;;;;;;;;;15.60;99.90;;;;;;5312795;27;19930;-83
2024/04/14 02:04:20;;;;;;;;;;;15.50;99.90;;;;;;5312760;26;20366;-82
2024/04/14 02:06:45;;;;;;;;;;;15.50;99.90;;;;;;5298852;27;19938;-82
2024/04/14 02:09:11;;;;;;;;;;;15.40;99.90;;;;;;5315951;26;19942;-82
2024/04/14 02:11:37;;;;;;;;;;;15.40;99.90;;;;;;5308475;26;19930;-82
2024/04/14 02:14:02;;;;;;;;;;;15.40;99.90;;;;;;5304983;27;19938;-83
2024/04/14 02:16:28;;;;;;;;;;;15.30;99.90;;;;;;5304589;26;19938;-82
2024/04/14 02:18:53;;;;;;;;;;;15.30;99.90;;;;;;5311334;27;19974;-81
2024/04/14 02:21:19;;;;;;;;;;;15.30;99.90;;;;;;5301726;27;19930;-83
2024/04/14 02:23:45;;;;;;;;;;;15.20;99.90;;;;;;5292972;26;19942;-81
2024/04/14 02:26:10;;;;;;;;;;;15.20;99.90;;;;;;5280254;27;19931;-83
2024/04/14 02:28:36;;;;;;;;;;;15.10;99.90;;;;;;5279576;27;20001;-82
2024/04/14 02:31:01;;;;;;;;;;;15.10;99.90;;;;;;5279462;27;20270;-82
2024/04/14 02:33:27;;;;;;;;;;;15.00;99.90;;;;;;5296144;27;19931;-82
2024/04/14 02:35:53;;;;;;;;;;;15.00;99.90;;;;;;5312027;26;19930;-81
2024/04/14 02:38:18;;;;;;;;;;;15.00;99.90;;;;;;5293841;27;19931;-82
2024/04/14 02:40:53;;;;;;;;;;;14.90;99.90;;;;;;5299304;27;19937;-81
2024/04/14 02:43:19;;;;;;;;;;;14.90;99.90;;;;;;5311625;26;19963;-83
2024/04/14 02:45:44;;;;;;;;;;;14.90;99.90;;;;;;5311597;27;20373;-83
2024/04/14 02:48:10;;;;;;;;;;;14.80;99.90;;;;;;5312450;26;19930;-81
2024/04/14 02:50:35;;;;;;;;;;;14.80;99.90;;;;;;5308652;26;19938;-81
2024/04/14 02:53:00;;;;;;;;;;;14.80;99.90;;;;;;5302133;26;19938;-82
2024/04/14 02:55:26;;;;;;;;;;;14.70;99.90;;;;;;5288853;26;19931;-82
2024/04/14 02:57:51;;;;;;;;;;;14.70;99.90;;;;;;5311122;26;20430;-80
2024/04/14 03:00:17;;;;;;;;;;;14.60;99.90;;;;;;5309415;26;19931;-83
2024/04/14 03:02:42;;;;;;;;;;;14.60;99.90;;;;;;5306400;26;19931;-81
2024/04/14 03:05:08;;;;;;;;;;;14.60;99.90;;;;;;5287247;26;20003;-81
2024/04/14 03:07:33;;;;;;;;;;;14.60;99.90;;;;;;5306500;27;19930;-82
2024/04/14 03:09:59;;;;;;;;;;;14.50;99.90;;;;;;5310320;27;19946;-81
2024/04/14 03:12:24;;;;;;;;;;;14.50;99.90;;;;;;5309508;27;20319;-80
2024/04/14 03:14:50;;;;;;;;;;;14.50;99.90;;;;;;5311428;26;19931;-82
2024/04/14 03:17:16;;;;;;;;;;;14.40;99.90;;;;;;5308120;26;19937;-82
2024/04/14 03:19:41;;;;;;;;;;;14.40;99.90;;;;;;5298264;26;20014;-81
2024/04/14 03:22:07;;;;;;;;;;;14.40;99.90;;;;;;5311064;27;20320;-82
2024/04/14 03:24:32;;;;;;;;;;;14.30;99.90;;;;;;5308022;26;19931;-82
2024/04/14 03:26:58;;;;;;;;;;;14.30;99.90;;;;;;5301974;27;19939;-81
2024/04/14 03:29:23;;;;;;;;;;;14.30;99.90;;;;;;5313011;26;19930;-81
2024/04/14 03:31:49;;;;;;;;;;;14.20;99.90;;;;;;5311834;27;19958;-82
2024/04/14 03:34:15;;;;;;;;;;;14.20;99.90;;;;;;5311440;26;20473;-83
2024/04/14 03:36:40;;;;;;;;;;;14.10;99.90;;;;;;5310902;27;19982;-81
2024/04/14 03:39:06;;;;;;;;;;;14.10;99.90;;;;;;5294685;27;19938;-82
2024/04/14 03:41:31;;;;;;;;;;;14.00;99.90;;;;;;5312291;27;20273;-82
2024/04/14 03:43:57;;;;;;;;;;;14.00;99.90;;;;;;5311875;27;19997;-82
2024/04/14 03:46:22;;;;;;;;;;;14.00;99.90;;;;;;5282770;27;19931;-82
2024/04/14 03:48:48;;;;;;;;;;;14.00;99.90;;;;;;5313248;26;19936;-82
2024/04/14 03:51:13;;;;;;;;;;;14.00;99.90;;;;;;5309972;26;19931;-82
2024/04/14 03:53:40;;;;;;;;;;;14.00;99.90;;;;;;5301129;27;19958;-83
2024/04/14 03:56:06;;;;;;;;;;;14.00;99.90;;;;;;5292404;26;19931;-82
2024/04/14 03:58:33;;;;;;;;;;;14.00;99.90;;;;;;5282950;27;20277;-82
2024/04/14 04:00:59;;;;;;;;;;;14.00;99.90;;;;;;5286566;27;19934;-81
2024/04/14 04:03:24;;;;;;;;;;;14.00;99.90;;;;;;5302297;27;19938;-82
2024/04/14 04:05:54;;;;;;;;;;;14.00;99.90;;;;;;5316519;26;19931;-82
2024/04/14 04:08:20;;;;;;;;;;;14.00;99.90;;;;;;5298976;27;20001;-80
2024/04/14 04:10:46;;;;;;;;;;;13.90;1.00;;;;;;5298256;27;19930;-82
2024/04/14 04:13:11;;;;;;;;;;;13.90;1.00;;;;;;5314417;26;19939;-81
2024/04/14 04:15:36;;;;;;;;;;;13.90;1.00;;;;;;5314779;26;19935;-81
2024/04/14 04:18:02;;;;;;;;;;;13.80;1.00;;;;;;5308283;27;19930;-81
2024/04/14 04:20:27;;;;;;;;;;;13.80;1.00;;;;;;5306463;27;19931;-82
2024/04/14 04:22:53;;;;;;;;;;;13.80;1.00;;;;;;5301309;27;19930;-81
2024/04/14 04:25:18;;;;;;;;;;;13.80;1.00;;;;;;5313573;26;20009;-83
2024/04/14 04:27:44;;;;;;;;;;;13.70;1.00;;;;;;5296213;26;19939;-82
2024/04/14 04:30:10;;;;;;;;;;;13.70;1.00;;;;;;5283445;27;19938;-82
2024/04/14 04:32:35;;;;;;;;;;;13.70;1.00;;;;;;5282782;27;19938;-82
2024/04/14 04:35:01;;;;;;;;;;;13.80;1.00;;;;;;5293708;27;19930;-83
2024/04/14 04:37:26;;;;;;;;;;;13.70;1.00;;;;;;5302357;26;19931;-83
2024/04/14 04:39:52;;;;;;;;;;;13.80;1.00;;;;;;5316722;27;19935;-83
2024/04/14 04:42:17;;;;;;;;;;;13.80;1.00;;;;;;5316523;26;19957;-82
2024/04/14 04:44:42;;;;;;;;;;;13.80;2.30;;;;;;5316969;26;19938;-82
2024/04/14 04:47:08;;;;;;;;;;;13.80;31.20;;;;;;5305103;27;19948;-82
2024/04/14 04:49:33;;;;;;;;;;;13.80;34.30;;;;;;5312888;27;20007;-82
2024/04/14 04:51:59;;;;;;;;;;;13.80;52.00;;;;;;5314050;27;19937;-81
2024/04/14 04:54:24;;;;;;;;;;;13.80;42.40;;;;;;5297991;26;20001;-82
2024/04/14 04:56:50;;;;;;;;;;;13.80;95.20;;;;;;5314060;27;19931;-82
2024/04/14 04:59:17;;;;;;;;;;;13.80;99.90;;;;;;5300115;26;19931;-82
2024/04/14 05:01:43;;;;;;;;;;;13.80;99.90;;;;;;5310254;26;19930;-81
2024/04/14 05:04:09;;;;;;;;;;;13.90;99.90;;;;;;5314084;26;19934;-82
2024/04/14 05:06:34;;;;;;;;;;;13.90;99.90;;;;;;5312278;27;20062;-81
2024/04/14 05:09:00;;;;;;;;;;;13.90;99.90;;;;;;5279382;27;19938;-81
2024/04/14 05:11:25;;;;;;;;;;;13.90;99.90;;;;;;5279228;27;19938;-80
2024/04/14 05:13:51;;;;;;;;;;;13.90;99.90;;;;;;5278259;27;19932;-81
2024/04/14 05:16:16;;;;;;;;;;;14.00;99.90;;;;;;5296187;27;19931;-82
2024/04/14 05:18:42;;;;;;;;;;;14.00;99.90;;;;;;5300276;26;20269;-81
2024/04/14 05:21:07;;;;;;;;;;;14.10;99.90;;;;;;5303605;27;19939;-81
2024/04/14 05:23:33;;;;;;;;;;;14.10;99.90;;;;;;5289373;27;19938;-82
2024/04/14 05:25:59;;;;;;;;;;;14.20;99.90;;;;;;5312859;26;19936;-82
2024/04/14 05:28:24;;;;;;;;;;;14.30;99.90;;;;;;5312777;26;19941;-81
2024/04/14 05:30:50;;;;;;;;;;;14.40;99.90;;;;;;5311797;27;19931;-82
2024/04/14 05:33:15;;;;;;;;;;;14.50;99.90;;;;;;5310625;27;20026;-80
2024/04/14 05:35:51;;;;;;;;;;;14.60;99.90;;;;;;5311950;26;19931;-83
2024/04/14 05:38:17;;;;;;;;;;;14.70;99.90;;;;;;5306074;27;19930;-82
2024/04/14 05:40:42;;;;;;;;;;;14.80;99.90;;;;;;5310276;26;19937;-83
2024/04/14 05:43:08;;;;;;;;;;;15.10;99.90;;;;;;5309089;26;19983;-82
2024/04/14 05:45:33;;;;;;;;;;;15.30;50.80;;;;;;5288091;27;19931;-82
2024/04/14 05:47:59;;;;;;;;;;;15.40;1.00;;;;;;5305332;27;19931;-82
2024/04/14 05:50:24;;;;;;;;;;;15.50;1.00;;;;;;5302350;26;19931;-80
2024/04/14 05:52:50;;;;;;;;;;;15.70;1.00;;;;;;5280448;27;19939;-82
2024/04/14 05:55:15;;;;;;;;;;;15.70;1.00;;;;;;5279848;27;19938;-82
2024/04/14 05:57:41;;;;;;;;;;;15.80;1.00;;;;;;5297809;27;19945;-83
2024/04/14 06:02:46;;;;;;;;;;;16.40;1.00;;;;;;5275430;26;19997;-82
2024/04/14 06:05:17;;;;;;;;;;;16.80;1.00;;;;;;5304991;27;19978;-82
2024/04/14 06:07:45;;;;;;;;;;;16.90;1.00;;;;;;5306422;27;19938;-81
2024/04/14 06:10:10;;;;;;;;;;;16.90;1.00;;;;;;5301382;26;19931;-80
2024/04/14 06:12:36;;;;;;;;;;;16.90;1.00;;;;;;5315509;26;19938;-80
2024/04/14 06:15:01;;;;;;;;;;;16.90;1.00;;;;;;5302654;26;19938;-81
2024/04/14 06:17:28;;;;;;;;;;;17.10;99.90;;;;;;5306467;26;19942;-81
2024/04/14 06:19:54;;;;;;;;;;;17.60;99.90;;;;;;5295369;26;20386;-81
2024/04/14 06:22:20;;;;;;;;;;;18.30;99.90;;;;;;5292458;27;19981;-82
2024/04/14 06:24:53;;;;;;;;;;;18.50;99.90;;;;;;5305024;26;20377;-80
2024/04/14 06:27:18;;;;;;;;;;;19.10;99.90;;;;;;5308362;27;19942;-83
2024/04/14 06:29:44;;;;;;;;;;;19.70;99.90;;;;;;5314203;27;19930;-82
2024/04/14 06:32:09;;;;;;;;;;;19.90;99.90;;;;;;5318882;26;19938;-81
2024/04/14 06:34:34;;;;;;;;;;;20.20;99.90;;;;;;5315951;26;19930;-82
2024/04/14 06:37:00;;;;;;;;;;;20.10;99.90;;;;;;5288029;27;19930;-82
2024/04/14 06:39:25;;;;;;;;;;;20.50;99.90;;;;;;5313139;27;20674;-82
2024/04/14 06:41:51;;;;;;;;;;;21.20;99.90;;;;;;5309710;27;19934;-83
2024/04/14 06:44:16;;;;;;;;;;;21.30;99.90;;;;;;5297476;26;20000;-80
2024/04/14 06:46:42;;;;;;;;;;;21.90;99.90;;;;;;5292994;27;19934;-82
2024/04/14 06:49:07;;;;;;;;;;;22.50;99.90;;;;;;5280732;27;19931;-82
2024/04/14 06:51:33;;;;;;;;;;;23.60;99.90;;;;;;5310034;26;20011;-81
2024/04/14 06:53:58;;;;;;;;;;;23.70;99.90;;;;;;5306515;27;19932;-83
2024/04/14 06:56:24;;;;;;;;;;;23.80;99.90;;;;;;5295184;27;19930;-83
2024/04/14 06:58:49;;;;;;;;;;;23.60;99.90;;;;;;5278905;27;20382;-83
2024/04/14 07:01:14;;;;;;;;;;;22.80;99.90;;;;;;5299055;26;19938;-82
2024/04/14 07:03:40;;;;;;;;;;;22.10;99.90;;;;;;5312183;27;20011;-80
2024/04/14 07:06:05;;;;;;;;;;;21.50;99.90;;;;;;5301606;27;20373;-83
2024/04/14 07:08:31;;;;;;;;;;;21.10;99.90;;;;;;5309238;27;19942;-81
2024/04/14 07:10:57;;;;;;;;;;;21.20;99.90;;;;;;5313537;26;19959;-82
2024/04/14 07:13:22;;;;;;;;;;;21.10;99.90;;;;;;5311041;26;19931;-82
2024/04/14 07:15:48;;;;;;;;;;;20.70;99.90;;;;;;5297722;27;19931;-83
2024/04/14 07:18:16;;;;;;;;;;;20.20;99.90;;;;;;5285244;27;19985;-80
2024/04/14 07:20:42;;;;;;;;;;;19.80;99.90;;;;;;5296432;26;20359;-81
2024/04/14 07:23:07;;;;;;;;;;;19.60;99.90;;;;;;5301842;26;19974;-83
2024/04/14 07:25:32;;;;;;;;;;;19.10;99.90;;;;;;5296269;26;19940;-83
2024/04/14 07:27:58;;;;;;;;;;;18.80;99.90;;;;;;5294387;26;19937;-82
2024/04/14 07:30:23;;;;;;;;;;;18.70;99.90;;;;;;5297034;27;19931;-82
2024/04/14 07:32:49;;;;;;;;;;;19.20;99.90;;;;;;5285714;26;19939;-83
2024/04/14 07:35:14;;;;;;;;;;;19.70;99.90;;;;;;5301724;26;19937;-82
2024/04/14 07:37:40;;;;;;;;;;;21.80;99.90;;;;;;5289148;26;20280;-79
2024/04/14 07:40:05;;;;;;;;;;;24.00;99.90;;;;;;5294441;27;19939;-81
2024/04/14 07:42:31;;;;;;;;;;;25.30;99.90;;;;;;5288652;26;19951;-80
2024/04/14 07:44:56;;;;;;;;;;;27.00;99.90;;;;;;5285244;27;19980;-81
2024/04/14 07:47:22;;;;;;;;;;;28.60;99.90;;;;;;5301349;26;19930;-81
2024/04/14 07:49:47;;;;;;;;;;;29.60;99.90;;;;;;5289927;26;19932;-81
2024/04/14 07:52:13;;;;;;;;;;;29.30;99.90;;;;;;5306555;26;19931;-81
2024/04/14 07:54:38;;;;;;;;;;;29.00;99.90;;;;;;5292647;26;19942;-82
2024/04/14 07:57:05;;;;;;;;;;;28.50;99.90;;;;;;5286544;26;19938;-80
2024/04/14 07:59:32;;;;;;;;;;;27.70;99.90;;;;;;5293359;26;19958;-80
2024/04/14 08:01:57;;;;;;;;;;;26.50;99.90;;;;;;5296391;26;21051;-79
2024/04/14 08:04:23;;;;;;;;;;;25.20;99.90;;;;;;5289790;27;19949;-80
2024/04/14 08:06:49;;;;;;;;;;;24.10;99.90;;;;;;5287516;26;19950;-80
2024/04/14 08:09:14;;;;;;;;;;;23.90;99.90;;;;;;5289348;27;19931;-80
2024/04/14 08:11:40;;;;;;;;;;;26.30;99.90;;;;;;5298273;27;20334;-79
2024/04/14 08:14:08;;;;;;;;;;;28.40;99.90;;;;;;5299461;26;19938;-79
2024/04/14 08:16:34;;;;;;;;;;;29.00;99.90;;;;;;5297519;26;19930;-78
2024/04/14 08:18:59;;;;;;;;;;;28.60;99.90;;;;;;5301807;27;20307;-81
2024/04/14 08:21:25;;;;;;;;;;;28.10;99.90;;;;;;5296832;26;20401;-79
2024/04/14 08:23:50;;;;;;;;;;;27.30;99.90;;;;;;5310331;27;19930;-81
2024/04/14 08:26:21;;;;;;;;;;;27.60;99.90;;;;;;5308378;26;20074;-80
2024/04/14 08:28:47;;;;;;;;;;;28.30;99.90;;;;;;5309329;26;19934;-80
2024/04/14 08:31:13;;;;;;;;;;;29.10;99.90;;;;;;5308830;26;19957;-81
2024/04/14 08:33:39;;;;;;;;;;;30.00;99.90;;;;;;5303212;27;20005;-80
2024/04/14 08:36:04;;;;;;;;;;;30.10;99.90;;;;;;5296677;27;20382;-81
2024/04/14 08:38:30;;;;;;;;;;;30.80;99.90;;;;;;5301388;26;19937;-79
2024/04/14 08:40:56;;;;;;;;;;;29.90;99.90;;;;;;5300325;26;19937;-80
2024/04/14 08:43:22;;;;;;;;;;;29.20;99.90;;;;;;5302259;27;19934;-78
2024/04/14 08:45:48;;;;;;;;;;;30.20;99.90;;;;;;5304558;26;20472;-80
2024/04/14 08:48:13;;;;;;;;;;;32.20;99.90;;;;;;5297588;26;19931;-80
2024/04/14 08:50:39;;;;;;;;;;;33.50;99.90;;;;;;5300740;26;19930;-80
2024/04/14 08:53:08;;;;;;;;;;;34.90;99.90;;;;;;5308255;26;19946;-83
2024/04/14 08:55:34;;;;;;;;;;;36.30;99.90;;;;;;5329650;26;19931;-79
2024/04/14 08:58:00;;;;;;;;;;;37.70;99.90;;;;;;5314034;27;19937;-81
2024/04/14 09:00:27;;;;;;;;;;;38.80;99.90;;;;;;5316504;26;19930;-83
2024/04/14 09:02:52;;;;;;;;;;;39.80;99.90;;;;;;5301909;27;19938;-78
2024/04/14 09:05:20;;;;;;;;;;;40.20;99.90;;;;;;5306892;27;19930;-82
2024/04/14 09:07:45;;;;;;;;;;;40.30;99.90;;;;;;5315337;27;19941;-83
2024/04/14 09:10:11;;;;;;;;;;;39.40;99.90;;;;;;5315903;26;19935;-82
2024/04/14 09:12:36;;;;;;;;;;;38.90;99.90;;;;;;5311394;26;19957;-80
2024/04/14 09:15:05;;;;;;;;;;;37.80;99.90;;;;;;5315429;27;19970;-83
2024/04/14 09:17:35;;;;;;;;;;;36.50;99.90;;;;;;5316170;27;20001;-82
2024/04/14 09:20:00;;;;;;;;;;;35.10;99.90;;;;;;5312466;26;19930;-82
2024/04/14 09:22:28;;;;;;;;;;;33.90;99.90;;;;;;5316159;26;19938;-81
2024/04/14 09:24:53;;;;;;;;;;;32.50;99.90;;;;;;5315402;26;19937;-81
2024/04/14 09:27:20;;;;;;;;;;;31.70;99.90;;;;;;5308074;27;19961;-81
2024/04/14 09:29:46;;;;;;;;;;;31.20;99.90;;;;;;5315833;27;19939;-80
2024/04/14 09:32:11;;;;;;;;;;;30.80;99.90;;;;;;5314854;26;19931;-82
2024/04/14 09:34:38;;;;;;;;;;;31.30;99.90;;;;;;5319577;27;19930;-82
2024/04/14 09:37:06;;;;;;;;;;;31.30;99.90;;;;;;5317239;26;19935;-79
2024/04/14 09:39:32;;;;;;;;;;;32.10;99.90;;;;;;5343056;26;19931;-83
2024/04/14 09:41:58;;;;;;;;;;;33.60;99.90;;;;;;5313047;26;20279;-82
2024/04/14 09:44:25;;;;;;;;;;;34.40;99.90;;;;;;5313365;27;19981;-81
2024/04/14 09:46:51;;;;;;;;;;;33.70;99.90;;;;;;5317179;26;19938;-81
2024/04/14 09:49:17;;;;;;;;;;;32.90;99.90;;;;;;5299733;27;19978;-80
2024/04/14 09:51:43;;;;;;;;;;;31.80;99.90;;;;;;5293090;26;19932;-80
2024/04/14 09:54:10;;;;;;;;;;;30.70;99.90;;;;;;5296739;27;19945;-80
2024/04/14 09:56:36;;;;;;;;;;;29.90;99.90;;;;;;5297017;27;19940;-81
2024/04/14 09:59:01;;;;;;;;;;;29.10;99.90;;;;;;5332406;26;20357;-80
2024/04/14 10:01:32;;;;;;;;;;;29.10;99.90;;;;;;5290968;27;19943;-82
2024/04/14 10:04:04;;;;;;;;;;;28.90;99.90;;;;;;5291637;27;19982;-81
2024/04/14 10:06:30;;;;;;;;;;;28.40;99.90;;;;;;5286266;27;19938;-82
2024/04/14 10:08:56;;;;;;;;;;;28.00;99.90;;;;;;5299030;27;19946;-81
2024/04/14 10:11:27;;;;;;;;;;;28.10;99.90;;;;;;5280761;26;19979;-80
2024/04/14 10:13:54;;;;;;;;;;;29.30;99.90;;;;;;5295552;27;19938;-83
2024/04/14 10:16:20;;;;;;;;;;;28.80;99.90;;;;;;5288745;26;19931;-81
2024/04/14 10:18:46;;;;;;;;;;;28.30;99.90;;;;;;5294400;26;19935;-82
2024/04/14 10:21:13;;;;;;;;;;;28.00;99.90;;;;;;5293131;26;19931;-82
2024/04/14 10:23:48;;;;;;;;;;;27.40;99.90;;;;;;5299734;27;19942;-81
2024/04/14 10:26:14;;;;;;;;;;;26.70;99.90;;;;;;5292945;26;19935;-82
2024/04/14 10:28:47;;;;;;;;;;;26.00;99.90;;;;;;5297626;26;19942;-81
2024/04/14 10:31:13;;;;;;;;;;;25.40;99.90;;;;;;5297260;26;19935;-80
2024/04/14 10:33:38;;;;;;;;;;;25.00;99.90;;;;;;5293294;27;19931;-80
2024/04/14 10:36:04;;;;;;;;;;;24.60;99.90;;;;;;5295363;26;19938;-81
2024/04/14 10:38:32;;;;;;;;;;;24.40;99.90;;;;;;5299684;26;19986;-82
2024/04/14 10:40:58;;;;;;;;;;;24.20;99.90;;;;;;5287997;26;19931;-81
2024/04/14 10:43:24;;;;;;;;;;;24.00;99.90;;;;;;5296290;27;19934;-79
2024/04/14 10:45:49;;;;;;;;;;;23.70;99.90;;;;;;5301383;26;20329;-80
2024/04/14 10:48:18;;;;;;;;;;;23.30;99.90;;;;;;5298132;26;19935;-81
2024/04/14 10:50:46;;;;;;;;;;;23.30;99.90;;;;;;5296376;27;20389;-80
2024/04/14 10:53:15;;;;;;;;;;;23.70;99.90;;;;;;5298076;26;19970;-81
2024/04/14 10:55:43;;;;;;;;;;;23.80;99.90;;;;;;5307409;27;19939;-82
2024/04/14 10:58:14;;;;;;;;;;;24.20;99.90;;;;;;5294341;26;20374;-81
2024/04/14 11:00:40;;;;;;;;;;;25.10;99.90;;;;;;5293429;26;19943;-81
2024/04/14 11:03:08;;;;;;;;;;;25.70;99.90;;;;;;5300647;27;19930;-80
2024/04/14 11:05:39;;;;;;;;;;;26.50;99.90;;;;;;5295912;26;19936;-81
2024/04/14 11:08:11;;;;;;;;;;;26.80;99.90;;;;;;5298280;26;19959;-79
2024/04/14 11:10:41;;;;;;;;;;;26.80;99.90;;;;;;5302910;27;19931;-82
2024/04/14 11:13:07;;;;;;;;;;;26.90;99.90;;;;;;5307837;26;19985;-81
2024/04/14 11:15:49;;;;;;;;;;;27.10;99.90;;;;;;5290111;26;19951;-80
2024/04/14 11:18:37;;;;;;;;;;;27.10;99.90;;;;;;5302158;26;19935;-81
2024/04/14 11:21:06;;;;;;;;;;;27.50;99.90;;;;;;5292779;26;19938;-80
2024/04/14 11:23:34;;;;;;;;;;;27.20;99.90;;;;;;5300324;26;20432;-81
2024/04/14 11:26:00;;;;;;;;;;;27.90;99.90;;;;;;5307561;26;19937;-79
2024/04/14 11:28:25;;;;;;;;;;;28.30;99.90;;;;;;5294599;26;19939;-82
2024/04/14 11:30:51;;;;;;;;;;;28.40;99.90;;;;;;5299192;26;19930;-80
2024/04/14 11:33:20;;;;;;;;;;;28.60;99.90;;;;;;5288851;26;19931;-82
2024/04/14 11:35:45;;;;;;;;;;;29.00;99.90;;;;;;5292385;26;19932;-83
2024/04/14 11:38:11;;;;;;;;;;;29.70;99.90;;;;;;5301519;27;19938;-82
2024/04/14 11:40:36;;;;;;;;;;;29.30;99.90;;;;;;5289152;26;19998;-82
2024/04/14 11:43:05;;;;;;;;;;;29.30;99.90;;;;;;5302920;27;19931;-82
2024/04/14 11:45:30;;;;;;;;;;;28.60;99.90;;;;;;5294483;26;19979;-81
2024/04/14 11:47:56;;;;;;;;;;;27.90;99.90;;;;;;5301448;26;19942;-81
2024/04/14 11:50:22;;;;;;;;;;;27.80;99.90;;;;;;5297773;26;20350;-82
2024/04/14 11:52:48;;;;;;;;;;;27.80;99.90;;;;;;5306069;26;19938;-81
2024/04/14 11:55:13;;;;;;;;;;;27.20;99.90;;;;;;5308290;26;19930;-82
2024/04/14 11:57:39;;;;;;;;;;;26.50;99.90;;;;;;5293493;26;20171;-82
2024/04/14 12:00:04;;;;;;;;;;;26.90;99.90;;;;;;5290904;26;19979;-81
2024/04/14 12:02:30;;;;;;;;;;;26.50;99.90;;;;;;5290451;26;19953;-84
2024/04/14 12:04:56;;;;;;;;;;;26.30;99.90;;;;;;5303922;26;19973;-80
2024/04/14 12:07:24;;;;;;;;;;;26.60;99.90;;;;;;5306913;26;20457;-82
2024/04/14 12:09:50;;;;;;;;;;;26.40;99.90;;;;;;5304923;27;19981;-80
2024/04/14 12:12:15;;;;;;;;;;;27.10;99.90;;;;;;5299719;27;19931;-81
2024/04/14 12:14:41;;;;;;;;;;;27.90;99.90;;;;;;5302804;26;19938;-83
2024/04/14 12:17:15;;;;;;;;;;;28.60;99.90;;;;;;5299821;27;19942;-81
2024/04/14 12:19:41;;;;;;;;;;;28.10;99.90;;;;;;5290492;26;19939;-82
2024/04/14 12:24:34;;;;;;;;;;;27.30;99.90;;;;;;5297567;27;19959;-82
2024/04/14 12:27:00;;;;;;;;;;;27.20;99.90;;;;;;5300314;27;20273;-81
2024/04/14 12:29:25;;;;;;;;;;;27.10;99.90;;;;;;5300524;26;20058;-83
2024/04/14 12:31:51;;;;;;;;;;;26.90;99.90;;;;;;5303564;26;19951;-81
2024/04/14 12:34:16;;;;;;;;;;;26.40;99.90;;;;;;5296816;26;19931;-82
2024/04/14 12:36:42;;;;;;;;;;;26.40;99.90;;;;;;5300058;27;19946;-82
2024/04/14 12:39:07;;;;;;;;;;;27.00;99.90;;;;;;5291507;26;19939;-84
2024/04/14 12:41:33;;;;;;;;;;;27.40;99.90;;;;;;5291985;26;19947;-83
2024/04/14 12:43:58;;;;;;;;;;;28.00;99.90;;;;;;5290888;26;19942;-81
2024/04/14 12:46:24;;;;;;;;;;;28.30;99.90;;;;;;5295172;26;19937;-83
2024/04/14 12:48:49;;;;;;;;;;;28.50;99.90;;;;;;5298232;26;19942;-81
2024/04/14 12:51:15;;;;;;;;;;;28.20;99.90;;;;;;5300139;26;20269;-82
2024/04/14 12:53:40;;;;;;;;;;;28.20;99.90;;;;;;5296506;26;19935;-81
2024/04/14 12:56:06;;;;;;;;;;;28.10;99.90;;;;;;5284160;26;20369;-82
2024/04/14 12:58:31;;;;;;;;;;;27.60;99.90;;;;;;5294072;26;19937;-82
2024/04/14 13:00:57;;;;;;;;;;;27.70;99.90;;;;;;5291273;26;19931;-83
2024/04/14 13:03:23;;;;;;;;;;;28.10;99.90;;;;;;5298218;26;19937;-82
2024/04/14 13:05:51;;;;;;;;;;;27.90;99.90;;;;;;5304637;27;19935;-83
2024/04/14 13:08:17;;;;;;;;;;;27.50;99.90;;;;;;5300997;26;19938;-85
2024/04/14 13:10:42;;;;;;;;;;;27.20;99.90;;;;;;5301972;26;19931;-82
2024/04/14 13:13:08;;;;;;;;;;;26.90;99.90;;;;;;5308293;27;19939;-82
2024/04/14 13:15:34;;;;;;;;;;;26.70;99.90;;;;;;5293766;27;19967;-82
2024/04/14 13:17:59;;;;;;;;;;;26.80;99.90;;;;;;5293240;26;20380;-81
2024/04/14 13:20:25;;;;;;;;;;;26.90;99.90;;;;;;5293529;26;19947;-81
2024/04/14 13:22:50;;;;;;;;;;;27.10;99.90;;;;;;5299230;26;20336;-81
2024/04/14 13:25:16;;;;;;;;;;;27.00;99.90;;;;;;5287823;26;19930;-83
2024/04/14 13:27:41;;;;;;;;;;;27.20;99.90;;;;;;5295909;26;19990;-82
2024/04/14 13:30:07;;;;;;;;;;;27.40;99.90;;;;;;5301566;26;19935;-82
2024/04/14 13:32:32;;;;;;;;;;;27.50;99.90;;;;;;5303762;26;19931;-83
2024/04/14 13:34:58;;;;;;;;;;;27.60;99.90;;;;;;5307384;26;20364;-84
2024/04/14 13:37:23;;;;;;;;;;;27.80;99.90;;;;;;5309171;26;19946;-83
2024/04/14 13:39:49;;;;;;;;;;;27.90;99.90;;;;;;5303988;27;19967;-81
2024/04/14 13:42:15;;;;;;;;;;;28.00;99.90;;;;;;5307665;27;19939;-83
2024/04/14 13:44:40;;;;;;;;;;;28.20;99.90;;;;;;5298434;27;20037;-82
2024/04/14 13:47:08;;;;;;;;;;;28.00;99.90;;;;;;5310302;27;19955;-81
2024/04/14 13:49:34;;;;;;;;;;;27.70;99.90;;;;;;5306854;27;19930;-81
2024/04/14 13:51:59;;;;;;;;;;;27.60;99.90;;;;;;5292725;27;19998;-83
2024/04/14 13:54:25;;;;;;;;;;;27.40;99.90;;;;;;5306315;27;19938;-83
2024/04/14 13:56:50;;;;;;;;;;;27.20;99.90;;;;;;5303786;27;20344;-81
2024/04/14 13:59:16;;;;;;;;;;;27.00;99.90;;;;;;5303897;27;19941;-82
2024/04/14 14:01:42;;;;;;;;;;;26.80;99.90;;;;;;5304200;27;19938;-80
2024/04/14 14:04:08;;;;;;;;;;;26.70;99.90;;;;;;5296754;27;19946;-81
2024/04/14 14:06:34;;;;;;;;;;;26.60;99.90;;;;;;5299419;26;20255;-82
2024/04/14 14:08:59;;;;;;;;;;;26.20;99.90;;;;;;5308173;27;19938;-82
2024/04/14 14:11:24;;;;;;;;;;;26.00;99.90;;;;;;5306792;26;20374;-79
2024/04/14 14:13:50;;;;;;;;;;;25.90;99.90;;;;;;5305470;27;20273;-80
2024/04/14 14:16:16;;;;;;;;;;;25.80;99.90;;;;;;5308307;27;19939;-82